createdAt,value
2023-05-20T00:01:58.177Z,11.61
2023-05-20T00:04:25.424Z,11.63
2023-05-20T00:06:55.870Z,11.61
2023-05-20T00:09:22.675Z,11.65
2023-05-20T00:11:49.514Z,11.64
2023-05-20T00:14:21.981Z,11.63
2023-05-20T00:16:48.871Z,11.57
2023-05-20T00:19:16.813Z,11.50
2023-05-20T00:21:43.738Z,11.45
2023-05-20T00:24:10.848Z,11.49
2023-05-20T00:26:37.672Z,11.49
2023-05-20T00:29:04.438Z,11.51
2023-05-20T00:31:31.334Z,11.44
2023-05-20T00:34:00.695Z,11.43
2023-05-20T00:36:27.642Z,11.49
2023-05-20T00:38:54.554Z,11.48
2023-05-20T00:41:21.713Z,11.37
2023-05-20T00:43:48.506Z,11.43
2023-05-20T00:46:15.452Z,11.33
2023-05-20T00:48:44.289Z,11.18
2023-05-20T00:51:14.197Z,11.08
2023-05-20T00:53:42.426Z,11.10
2023-05-20T00:56:14.238Z,11.17
2023-05-20T00:58:41.445Z,11.21
2023-05-20T01:01:08.386Z,11.16
2023-05-20T01:03:35.720Z,11.12
2023-05-20T01:06:03.230Z,11.16
2023-05-20T01:08:30.388Z,11.09
2023-05-20T01:11:09.347Z,11.07
2023-05-20T01:13:45.438Z,11.07
2023-05-20T01:16:17.826Z,11.05
2023-05-20T01:18:48.505Z,11.09
2023-05-20T01:21:17.467Z,11.09
2023-05-20T01:23:44.623Z,11.02
2023-05-20T01:26:14.016Z,11.05
2023-05-20T01:28:44.641Z,11.10
2023-05-20T01:31:20.861Z,11.10
2023-05-20T01:33:56.097Z,10.99
2023-05-20T01:36:23.625Z,11.01
2023-05-20T01:38:53.411Z,11.03
2023-05-20T01:41:23.726Z,11.05
2023-05-20T01:43:50.758Z,11.08
2023-05-20T01:46:17.628Z,11.01
2023-05-20T01:48:44.517Z,11.08
2023-05-20T01:51:11.457Z,11.05
2023-05-20T01:53:38.343Z,10.99
2023-05-20T01:56:06.144Z,11.08
2023-05-20T01:58:33.237Z,11.05
2023-05-20T02:01:00.358Z,11.06
2023-05-20T02:03:27.258Z,11.05
2023-05-20T02:05:54.729Z,11.08
2023-05-20T02:08:21.608Z,11.00
2023-05-20T02:10:49.559Z,11.02
2023-05-20T02:13:16.638Z,11.08
2023-05-20T02:15:43.671Z,11.04
2023-05-20T02:18:12.566Z,11.05
2023-05-20T02:20:40.199Z,11.05
2023-05-20T02:23:07.693Z,11.10
2023-05-20T02:25:34.825Z,11.11
2023-05-20T02:28:05.600Z,11.11
2023-05-20T02:30:32.421Z,11.07
2023-05-20T02:33:00.070Z,11.12
2023-05-20T02:35:26.964Z,11.06
2023-05-20T02:37:53.871Z,11.05
2023-05-20T02:40:22.962Z,11.03
2023-05-20T02:42:49.960Z,10.95
2023-05-20T02:45:17.358Z,10.90
2023-05-20T02:47:44.700Z,10.86
2023-05-20T02:50:11.810Z,10.85
2023-05-20T02:52:40.025Z,10.85
2023-05-20T02:55:07.817Z,10.86
2023-05-20T02:57:38.118Z,10.90
2023-05-20T03:00:13.229Z,10.88
2023-05-20T03:02:40.253Z,10.88
2023-05-20T03:05:07.952Z,10.96
2023-05-20T03:07:36.445Z,11.08
2023-05-20T03:10:04.934Z,11.04
2023-05-20T03:12:32.060Z,10.96
2023-05-20T03:15:00.855Z,10.95
2023-05-20T03:17:27.754Z,11.01
2023-05-20T03:19:56.117Z,11.00
2023-05-20T03:22:23.424Z,11.07
2023-05-20T03:24:52.711Z,11.11
2023-05-20T03:27:19.593Z,11.16
2023-05-20T03:29:48.166Z,11.17
2023-05-20T03:32:15.010Z,11.20
2023-05-20T03:34:42.828Z,11.20
2023-05-20T03:37:09.682Z,11.24
2023-05-20T03:39:36.479Z,11.24
2023-05-20T03:42:03.388Z,11.25
2023-05-20T03:44:30.301Z,11.25
2023-05-20T03:46:57.216Z,11.29
2023-05-20T03:49:24.068Z,11.24
2023-05-20T03:51:50.817Z,11.27
2023-05-20T03:54:20.646Z,11.21
2023-05-20T03:56:49.137Z,11.22
2023-05-20T03:59:16.022Z,11.19
2023-05-20T04:01:42.916Z,11.20
2023-05-20T04:04:09.814Z,11.24
2023-05-20T04:06:36.661Z,11.27
2023-05-20T04:09:03.877Z,11.33
2023-05-20T04:11:30.879Z,11.34
2023-05-20T04:14:00.270Z,11.29
2023-05-20T04:16:27.290Z,11.26
2023-05-20T04:18:54.225Z,11.26
2023-05-20T04:21:21.284Z,11.26
2023-05-20T04:23:48.154Z,11.32
2023-05-20T04:26:14.995Z,11.38
2023-05-20T04:28:42.164Z,11.43
2023-05-20T04:31:09.125Z,11.43
2023-05-20T04:33:38.636Z,11.46
2023-05-20T04:36:11.990Z,11.50
2023-05-20T04:38:40.155Z,11.54
2023-05-20T04:41:08.081Z,11.62
2023-05-20T04:43:35.266Z,11.66
2023-05-20T04:46:05.954Z,11.70
2023-05-20T04:48:33.718Z,11.71
2023-05-20T04:51:00.704Z,11.73
2023-05-20T04:53:33.678Z,11.78
2023-05-20T04:56:00.552Z,11.83
2023-05-20T04:58:29.744Z,11.87
2023-05-20T05:00:56.737Z,11.89
2023-05-20T05:03:23.761Z,11.86
2023-05-20T05:05:50.698Z,11.87
2023-05-20T05:08:17.579Z,11.90
2023-05-20T05:10:45.949Z,11.93
2023-05-20T05:13:12.793Z,12.00
2023-05-20T05:15:39.710Z,12.04
2023-05-20T05:18:06.721Z,12.08
2023-05-20T05:20:36.258Z,12.11
2023-05-20T05:23:03.490Z,12.16
2023-05-20T05:25:31.077Z,12.23
2023-05-20T05:27:57.953Z,12.25
2023-05-20T05:30:24.877Z,12.29
2023-05-20T05:32:51.812Z,12.38
2023-05-20T05:35:19.175Z,12.49
2023-05-20T05:37:46.311Z,12.60
2023-05-20T05:40:16.785Z,12.73
2023-05-20T05:42:43.837Z,12.89
2023-05-20T05:45:11.398Z,13.05
2023-05-20T05:47:40.438Z,13.20
2023-05-20T05:50:11.003Z,13.34
2023-05-20T05:52:38.371Z,13.47
2023-05-20T05:55:06.496Z,13.57
2023-05-20T05:57:33.636Z,13.67
2023-05-20T06:00:01.042Z,13.77
2023-05-20T06:02:28.465Z,13.82
2023-05-20T06:04:55.633Z,13.86
2023-05-20T06:07:23.736Z,13.91
2023-05-20T06:09:50.672Z,13.98
2023-05-20T06:12:17.550Z,14.04
2023-05-20T06:14:44.655Z,14.07
2023-05-20T06:17:11.485Z,14.13
2023-05-20T06:19:38.322Z,14.21
2023-05-20T06:22:05.317Z,14.27
2023-05-20T06:24:34.046Z,14.33
2023-05-20T06:27:00.830Z,14.36
2023-05-20T06:29:29.143Z,14.44
2023-05-20T06:31:56.020Z,14.52
2023-05-20T06:34:22.827Z,14.58
2023-05-20T06:36:49.676Z,14.64
2023-05-20T06:39:16.513Z,14.68
2023-05-20T06:41:44.144Z,14.73
2023-05-20T06:44:11.141Z,14.79
2023-05-20T06:46:38.020Z,14.84
2023-05-20T06:49:07.326Z,14.90
2023-05-20T06:51:34.227Z,14.94
2023-05-20T06:54:01.042Z,14.97
2023-05-20T06:56:27.908Z,15.02
2023-05-20T06:58:55.801Z,15.09
2023-05-20T07:01:22.707Z,15.18
2023-05-20T07:03:49.662Z,15.26
2023-05-20T07:06:16.685Z,15.31
2023-05-20T07:08:43.797Z,15.39
2023-05-20T07:11:20.030Z,15.50
2023-05-20T07:13:46.838Z,15.53
2023-05-20T07:16:13.860Z,15.54
2023-05-20T07:18:41.564Z,15.64
2023-05-20T07:21:08.589Z,15.83
2023-05-20T07:23:35.973Z,16.00
2023-05-20T07:26:03.565Z,16.14
2023-05-20T07:28:30.877Z,16.05
2023-05-20T07:30:58.563Z,16.17
2023-05-20T07:33:25.449Z,16.29
2023-05-20T07:35:54.475Z,16.51
2023-05-20T07:38:21.457Z,16.48
2023-05-20T07:40:48.364Z,16.35
2023-05-20T07:43:15.343Z,16.36
2023-05-20T07:45:43.196Z,16.47
2023-05-20T07:48:10.860Z,16.54
2023-05-20T07:50:37.959Z,16.60
2023-05-20T07:53:06.004Z,16.57
2023-05-20T07:55:36.959Z,16.51
2023-05-20T07:58:04.893Z,16.60
2023-05-20T08:00:31.835Z,16.64
2023-05-20T08:02:58.780Z,16.72
2023-05-20T08:05:26.551Z,16.73
2023-05-20T08:07:53.399Z,16.78
2023-05-20T08:10:20.393Z,16.90
2023-05-20T08:12:47.262Z,17.33
2023-05-20T08:15:14.223Z,17.76
2023-05-20T08:17:41.287Z,17.73
2023-05-20T08:20:09.516Z,17.76
2023-05-20T08:22:37.627Z,17.82
2023-05-20T08:25:11.356Z,18.03
2023-05-20T08:27:38.583Z,18.08
2023-05-20T08:30:08.181Z,17.91
2023-05-20T08:32:35.731Z,17.85
2023-05-20T08:35:04.085Z,18.08
2023-05-20T08:37:31.142Z,18.16
2023-05-20T08:40:00.216Z,18.38
2023-05-20T08:42:27.085Z,18.69
2023-05-20T08:44:57.249Z,18.76
2023-05-20T08:47:24.534Z,18.51
2023-05-20T08:49:51.539Z,18.42
2023-05-20T08:52:22.662Z,18.42
2023-05-20T08:54:54.665Z,18.44
2023-05-20T08:57:22.236Z,18.48
2023-05-20T08:59:49.299Z,18.51
2023-05-20T09:02:16.409Z,18.58
2023-05-20T09:04:43.531Z,18.55
2023-05-20T09:07:10.518Z,18.55
2023-05-20T09:09:37.424Z,18.54
2023-05-20T09:12:04.748Z,18.59
2023-05-20T09:14:32.165Z,19.08
2023-05-20T09:17:01.706Z,19.39
2023-05-20T09:19:28.566Z,19.44
2023-05-20T09:21:55.638Z,19.59
2023-05-20T09:24:26.755Z,19.51
2023-05-20T09:26:53.906Z,19.37
2023-05-20T09:29:21.781Z,19.31
2023-05-20T09:31:50.000Z,19.65
2023-05-20T09:34:17.890Z,19.91
2023-05-20T09:36:45.401Z,20.32
2023-05-20T09:39:23.265Z,20.77
2023-05-20T09:42:03.966Z,21.03
2023-05-20T09:44:33.700Z,21.16
2023-05-20T09:47:02.509Z,21.10
2023-05-20T09:49:31.034Z,21.02
2023-05-20T09:52:01.542Z,20.80
2023-05-20T09:54:29.818Z,20.72
2023-05-20T09:57:00.717Z,20.73
2023-05-20T09:59:28.327Z,20.73
2023-05-20T10:01:55.263Z,20.55
2023-05-20T10:04:26.723Z,20.48
2023-05-20T10:07:41.323Z,20.77
2023-05-20T10:10:40.594Z,21.25
2023-05-20T10:13:58.648Z,21.28
2023-05-20T10:16:31.477Z,21.08
2023-05-20T10:19:26.822Z,21.19
2023-05-20T10:22:01.342Z,21.07
2023-05-20T10:24:34.642Z,21.14
2023-05-20T10:27:04.919Z,21.24
2023-05-20T10:29:52.080Z,21.66
2023-05-20T10:32:34.702Z,21.52
2023-05-20T10:35:10.134Z,21.28
2023-05-20T10:37:51.033Z,21.47
2023-05-20T10:40:20.369Z,21.80
2023-05-20T10:42:48.805Z,21.68
2023-05-20T10:45:29.843Z,21.43
2023-05-20T10:47:58.861Z,21.15
2023-05-20T10:50:42.630Z,21.23
2023-05-20T10:53:25.263Z,21.52
2023-05-20T10:55:56.575Z,21.71
2023-05-20T10:58:24.849Z,21.52
2023-05-20T11:00:56.103Z,21.27
2023-05-20T11:03:24.311Z,21.07
2023-05-20T11:05:51.776Z,21.01
2023-05-20T11:08:28.493Z,21.10
2023-05-20T11:10:59.392Z,21.33
2023-05-20T11:13:26.787Z,21.30
2023-05-20T11:15:58.126Z,21.87
2023-05-20T11:18:30.834Z,21.94
2023-05-20T11:21:02.123Z,21.81
2023-05-20T11:23:30.304Z,21.59
2023-05-20T11:25:58.046Z,21.51
2023-05-20T11:28:25.699Z,21.45
2023-05-20T11:30:53.635Z,21.32
2023-05-20T11:33:20.884Z,21.14
2023-05-20T11:35:50.958Z,21.12
2023-05-20T11:38:20.196Z,21.52
2023-05-20T11:40:52.354Z,21.66
2023-05-20T11:43:20.469Z,21.73
2023-05-20T11:46:00.970Z,21.62
2023-05-20T11:48:28.207Z,21.43
2023-05-20T11:50:56.963Z,21.33
2023-05-20T11:53:27.849Z,21.77
2023-05-20T11:55:57.676Z,22.15
2023-05-20T11:58:31.798Z,22.31
2023-05-20T12:01:13.496Z,23.13
2023-05-20T12:03:46.460Z,22.71
2023-05-20T12:06:15.907Z,22.25
2023-05-20T12:08:42.960Z,21.94
2023-05-20T12:11:09.804Z,22.53
2023-05-20T12:13:36.719Z,23.22
2023-05-20T12:16:05.831Z,23.23
2023-05-20T12:18:33.644Z,22.94
2023-05-20T12:21:01.303Z,22.48
2023-05-20T12:23:30.681Z,22.23
2023-05-20T12:25:57.523Z,22.08
2023-05-20T12:28:24.342Z,21.98
2023-05-20T12:30:51.748Z,21.85
2023-05-20T12:33:20.825Z,21.73
2023-05-20T12:35:47.704Z,21.66
2023-05-20T12:38:14.636Z,21.55
2023-05-20T12:40:41.616Z,21.42
2023-05-20T12:43:08.683Z,21.44
2023-05-20T12:45:35.827Z,21.73
2023-05-20T12:48:02.970Z,22.25
2023-05-20T12:50:30.025Z,22.54
2023-05-20T12:52:56.944Z,23.05
2023-05-20T12:55:24.958Z,23.77
2023-05-20T12:57:52.128Z,24.53
2023-05-20T13:00:19.184Z,25.62
2023-05-20T13:02:46.064Z,26.90
2023-05-20T13:05:13.643Z,27.63
2023-05-20T13:07:43.535Z,27.96
2023-05-20T13:10:11.703Z,27.25
2023-05-20T13:12:38.793Z,27.14
2023-05-20T13:15:06.695Z,27.65
2023-05-20T13:17:33.634Z,28.31
2023-05-20T13:20:00.692Z,28.55
2023-05-20T13:22:27.606Z,28.68
2023-05-20T13:24:54.486Z,28.19
2023-05-20T13:27:21.536Z,27.60
2023-05-20T13:29:48.380Z,26.96
2023-05-20T13:32:15.571Z,26.87
2023-05-20T13:34:42.526Z,27.48
2023-05-20T13:37:09.390Z,27.18
2023-05-20T13:39:36.529Z,26.17
2023-05-20T13:42:04.240Z,25.48
2023-05-20T13:44:32.614Z,25.45
2023-05-20T13:47:00.122Z,25.41
2023-05-20T13:49:27.109Z,25.41
2023-05-20T13:51:53.953Z,25.32
2023-05-20T13:54:21.686Z,25.09
2023-05-20T13:56:48.743Z,24.68
2023-05-20T13:59:15.857Z,24.38
2023-05-20T14:01:45.053Z,25.10
2023-05-20T14:04:13.119Z,26.19
2023-05-20T14:06:40.783Z,26.00
2023-05-20T14:09:11.443Z,26.41
2023-05-20T14:11:38.369Z,26.36
2023-05-20T14:14:05.242Z,26.31
2023-05-20T14:16:32.798Z,26.96
2023-05-20T14:19:00.023Z,27.33
2023-05-20T14:21:26.915Z,26.75
2023-05-20T14:23:55.983Z,25.75
2023-05-20T14:26:23.034Z,25.25
2023-05-20T14:28:49.963Z,24.84
2023-05-20T14:31:17.458Z,24.53
2023-05-20T14:33:44.399Z,24.33
2023-05-20T14:36:11.587Z,24.22
2023-05-20T14:38:38.826Z,24.15
2023-05-20T14:41:05.681Z,24.40
2023-05-20T14:43:32.476Z,24.51
2023-05-20T14:45:59.671Z,24.41
2023-05-20T14:48:26.682Z,24.65
2023-05-20T14:50:53.494Z,24.59
2023-05-20T14:53:20.493Z,24.64
2023-05-20T14:55:47.398Z,24.27
2023-05-20T14:58:14.241Z,23.95
2023-05-20T15:00:41.992Z,23.64
2023-05-20T15:03:09.033Z,23.44
2023-05-20T15:05:36.411Z,23.28
2023-05-20T15:08:03.724Z,23.24
2023-05-20T15:10:30.612Z,23.22
2023-05-20T15:12:57.455Z,23.21
2023-05-20T15:15:24.206Z,23.26
2023-05-20T15:17:52.389Z,23.32
2023-05-20T15:20:19.248Z,23.33
2023-05-20T15:22:47.747Z,23.37
2023-05-20T15:25:15.605Z,23.40
2023-05-20T15:27:42.834Z,23.51
2023-05-20T15:30:10.775Z,23.66
2023-05-20T15:32:37.829Z,23.86
2023-05-20T15:35:05.938Z,23.79
2023-05-20T15:37:32.772Z,23.56
2023-05-20T15:39:59.584Z,23.35
2023-05-20T15:42:29.063Z,23.21
2023-05-20T15:44:55.954Z,23.19
2023-05-20T15:47:22.933Z,23.17
2023-05-20T15:49:49.775Z,23.13
2023-05-20T15:52:16.776Z,23.08
2023-05-20T15:54:43.593Z,23.03
2023-05-20T15:57:10.444Z,22.98
2023-05-20T15:59:37.323Z,22.93
2023-05-20T16:02:04.330Z,22.90
2023-05-20T16:04:32.277Z,22.86
2023-05-20T16:06:59.484Z,22.80
2023-05-20T16:09:26.372Z,22.78
2023-05-20T16:11:53.159Z,22.74
2023-05-20T16:14:19.950Z,22.72
2023-05-20T16:16:46.922Z,22.66
2023-05-20T16:19:14.176Z,22.62
2023-05-20T16:21:41.018Z,22.56
2023-05-20T16:24:07.805Z,22.52
2023-05-20T16:26:34.719Z,22.47
2023-05-20T16:29:02.015Z,22.40
2023-05-20T16:31:28.944Z,22.34
2023-05-20T16:33:56.390Z,22.28
2023-05-20T16:36:23.867Z,22.22
2023-05-20T16:38:50.984Z,22.16
2023-05-20T16:41:17.891Z,22.13
2023-05-20T16:43:44.733Z,22.12
2023-05-20T16:46:14.963Z,22.10
2023-05-20T16:48:42.838Z,22.05
2023-05-20T16:51:09.685Z,22.00
2023-05-20T16:53:37.195Z,21.98
2023-05-20T16:56:06.679Z,21.93
2023-05-20T16:58:33.815Z,21.90
2023-05-20T17:01:01.273Z,21.88
2023-05-20T17:03:28.149Z,21.85
2023-05-20T17:05:55.330Z,21.80
2023-05-20T17:08:22.188Z,21.79
2023-05-20T17:10:51.256Z,21.75
2023-05-20T17:13:19.352Z,21.69
2023-05-20T17:15:46.317Z,21.65
2023-05-20T17:18:14.264Z,21.60
2023-05-20T17:20:41.217Z,21.56
2023-05-20T17:23:08.337Z,21.50
2023-05-20T17:25:35.119Z,21.47
2023-05-20T17:28:02.093Z,21.45
2023-05-20T17:30:28.966Z,21.44
2023-05-20T17:32:57.506Z,21.40
2023-05-20T17:35:25.785Z,21.37
2023-05-20T17:37:53.458Z,21.33
2023-05-20T17:40:23.601Z,21.31
2023-05-20T17:42:50.586Z,21.28
2023-05-20T17:45:17.417Z,21.25
2023-05-20T17:47:44.389Z,21.23
2023-05-20T17:50:11.528Z,21.17
2023-05-20T17:52:38.436Z,21.09
2023-05-20T17:55:06.661Z,21.03
2023-05-20T17:57:33.924Z,20.98
2023-05-20T18:00:02.933Z,20.94
2023-05-20T18:02:29.786Z,20.93
2023-05-20T18:04:56.783Z,20.88
2023-05-20T18:07:23.630Z,20.83
2023-05-20T18:09:50.482Z,20.80
2023-05-20T18:12:17.352Z,20.75
2023-05-20T18:14:44.148Z,20.72
2023-05-20T18:17:10.975Z,20.67
2023-05-20T18:19:37.777Z,20.62
2023-05-20T18:22:07.152Z,20.58
2023-05-20T18:24:34.081Z,20.54
2023-05-20T18:27:01.306Z,20.51
2023-05-20T18:29:28.189Z,20.44
2023-05-20T18:31:55.001Z,20.40
2023-05-20T18:34:21.866Z,20.28
2023-05-20T18:36:49.235Z,20.17
2023-05-20T18:39:20.284Z,20.02
2023-05-20T18:41:48.341Z,19.91
2023-05-20T18:44:17.327Z,19.83
2023-05-20T18:46:44.438Z,19.71
2023-05-20T18:49:11.758Z,19.69
2023-05-20T18:51:39.831Z,19.62
2023-05-20T18:54:07.064Z,19.48
2023-05-20T18:56:34.506Z,19.36
2023-05-20T18:59:01.581Z,19.31
2023-05-20T19:01:28.820Z,19.25
2023-05-20T19:03:55.808Z,19.11
2023-05-20T19:06:22.875Z,19.07
2023-05-20T19:08:49.953Z,19.08
2023-05-20T19:11:17.228Z,18.99
2023-05-20T19:13:44.085Z,18.96
2023-05-20T19:16:11.570Z,18.91
2023-05-20T19:18:41.665Z,18.94
2023-05-20T19:21:08.603Z,18.89
2023-05-20T19:23:35.441Z,18.83
2023-05-20T19:26:02.764Z,18.74
2023-05-20T19:28:36.820Z,18.73
2023-05-20T19:31:03.748Z,18.73
2023-05-20T19:33:30.721Z,18.70
2023-05-20T19:36:00.212Z,18.64
2023-05-20T19:38:27.844Z,18.58
2023-05-20T19:40:54.608Z,18.58
2023-05-20T19:43:24.269Z,18.54
2023-05-20T19:45:51.268Z,18.57
2023-05-20T19:48:20.699Z,18.52
2023-05-20T19:50:49.060Z,18.52
2023-05-20T19:53:16.031Z,18.56
2023-05-20T19:55:43.545Z,18.53
2023-05-20T19:58:10.534Z,18.44
2023-05-20T20:00:38.300Z,18.46
2023-05-20T20:03:07.620Z,18.45
2023-05-20T20:05:34.784Z,18.38
2023-05-20T20:08:01.885Z,18.34
2023-05-20T20:10:34.215Z,18.34
2023-05-20T20:13:01.104Z,18.36
2023-05-20T20:15:29.169Z,18.37
2023-05-20T20:17:56.017Z,18.32
2023-05-20T20:20:24.651Z,18.24
2023-05-20T20:22:51.644Z,18.20
2023-05-20T20:25:20.293Z,18.15
2023-05-20T20:27:48.407Z,18.13
2023-05-20T20:30:21.793Z,18.14
2023-05-20T20:32:48.747Z,18.10
2023-05-20T20:35:15.944Z,18.08
2023-05-20T20:37:44.961Z,18.04
2023-05-20T20:40:13.637Z,18.04
2023-05-20T20:42:44.392Z,18.02
2023-05-20T20:45:15.399Z,17.99
2023-05-20T20:47:43.838Z,18.01
2023-05-20T20:50:11.997Z,17.96
2023-05-20T20:52:40.712Z,17.84
2023-05-20T20:55:13.937Z,17.82
2023-05-20T20:57:41.930Z,17.83
2023-05-20T21:00:23.302Z,17.80
2023-05-20T21:02:50.995Z,17.72
2023-05-20T21:05:18.121Z,17.71
2023-05-20T21:07:52.354Z,17.73
2023-05-20T21:10:19.323Z,17.69
2023-05-20T21:12:46.184Z,17.69
2023-05-20T21:15:14.808Z,17.59
2023-05-20T21:17:44.207Z,17.53
2023-05-20T21:20:12.008Z,17.50
2023-05-20T21:22:39.103Z,17.47
2023-05-20T21:25:08.211Z,17.34
2023-05-20T21:27:35.514Z,17.28
2023-05-20T21:30:02.346Z,17.27
2023-05-20T21:32:29.188Z,17.25
2023-05-20T21:34:58.183Z,17.20
2023-05-20T21:37:25.527Z,17.10
2023-05-20T21:39:52.371Z,17.10
2023-05-20T21:42:21.962Z,17.06
2023-05-20T21:44:48.801Z,16.99
2023-05-20T21:47:15.812Z,16.95
2023-05-20T21:49:42.738Z,16.91
2023-05-20T21:52:09.521Z,16.87
2023-05-20T21:54:36.481Z,16.83
2023-05-20T21:57:04.753Z,16.79
2023-05-20T21:59:31.512Z,16.77
2023-05-20T22:01:58.498Z,16.74
2023-05-20T22:04:28.403Z,16.64
2023-05-20T22:06:56.682Z,16.61
2023-05-20T22:09:23.598Z,16.51
2023-05-20T22:11:50.868Z,16.54
2023-05-20T22:14:18.050Z,16.52
2023-05-20T22:16:46.588Z,16.47
2023-05-20T22:19:17.602Z,16.40
2023-05-20T22:21:50.809Z,16.26
2023-05-20T22:24:18.229Z,16.25
2023-05-20T22:26:45.286Z,16.32
2023-05-20T22:29:12.288Z,16.27
2023-05-20T22:31:39.569Z,16.25
2023-05-20T22:34:06.814Z,16.26
2023-05-20T22:36:34.157Z,16.21
2023-05-20T22:39:02.253Z,16.16
2023-05-20T22:41:29.323Z,16.08
2023-05-20T22:43:58.991Z,16.02
2023-05-20T22:46:26.255Z,16.01
2023-05-20T22:48:53.320Z,15.97
2023-05-20T22:51:21.390Z,15.93
2023-05-20T22:53:49.050Z,15.92
2023-05-20T22:56:17.236Z,15.84
2023-05-20T22:58:45.779Z,15.82
2023-05-20T23:01:13.025Z,15.87
2023-05-20T23:03:39.968Z,15.85
2023-05-20T23:06:06.917Z,15.85
2023-05-20T23:08:34.216Z,15.83
2023-05-20T23:11:01.080Z,15.80
2023-05-20T23:13:27.980Z,15.85
2023-05-20T23:15:54.896Z,15.83
2023-05-20T23:18:21.777Z,15.83
2023-05-20T23:20:48.740Z,15.77
2023-05-20T23:23:15.991Z,15.73
2023-05-20T23:25:45.039Z,15.76
2023-05-20T23:28:12.548Z,15.75
2023-05-20T23:30:40.288Z,15.66
2023-05-20T23:33:07.207Z,15.62
2023-05-20T23:35:34.287Z,15.71
2023-05-20T23:38:01.454Z,15.68
2023-05-20T23:40:28.416Z,15.68
2023-05-20T23:42:55.280Z,15.66
2023-05-20T23:45:22.035Z,15.59
2023-05-20T23:47:49.285Z,15.62
2023-05-20T23:50:16.324Z,15.61
2023-05-20T23:52:46.524Z,15.48
2023-05-20T23:55:14.461Z,15.41
2023-05-20T23:57:41.530Z,15.50
